Time;durP1;ratioP1;P1;durP2;ratioP2;P2;SDS_P1;SDS_P2;PMS_P1;PMS_P2;Temp;Humidity;BMP_temperature;BMP_pressure;BME280_temperature;BME280_humidity;BME280_pressure;Samples;Min_cycle;Max_cycle;Signal;HPM_P1;HPM_P2
2022/11/19 00:00:51;;;;;;;10.77;8.27;;;-2.70;88.10;;;;;;5078123;28;20176;-86
2022/11/19 00:03:19;;;;;;;9.10;7.47;;;-2.70;88.10;;;;;;5078445;28;20197;-86
2022/11/19 00:05:47;;;;;;;10.47;8.67;;;-2.80;88.00;;;;;;5077155;28;20657;-86
2022/11/19 00:08:15;;;;;;;9.67;7.77;;;-2.70;88.10;;;;;;5078382;28;20178;-86
2022/11/19 00:10:41;;;;;;;10.63;8.10;;;-2.70;88.10;;;;;;5078461;28;20596;-86
2022/11/19 00:13:07;;;;;;;9.20;7.90;;;-2.80;87.80;;;;;;5079118;28;20178;-86
2022/11/19 00:15:34;;;;;;;10.67;8.73;;;-2.90;87.60;;;;;;5078072;28;20623;-87
2022/11/19 00:18:00;;;;;;;9.67;7.93;;;-3.00;87.50;;;;;;5076261;28;20233;-87
2022/11/19 00:20:26;;;;;;;10.77;7.97;;;-3.00;87.50;;;;;;5076231;28;20179;-87
2022/11/19 00:22:53;;;;;;;11.83;8.87;;;-3.00;87.60;;;;;;5075866;28;20296;-86
2022/11/19 00:25:24;;;;;;;8.50;7.03;;;-3.00;87.70;;;;;;5075745;28;20223;-86
2022/11/19 00:27:49;;;;;;;10.50;8.60;;;-3.00;87.80;;;;;;5075600;28;20173;-86
2022/11/19 00:30:16;;;;;;;9.43;8.17;;;-3.00;87.80;;;;;;5076889;28;20188;-86
2022/11/19 00:32:42;;;;;;;12.53;7.93;;;-2.90;87.90;;;;;;5076936;28;20174;-86
2022/11/19 00:35:08;;;;;;;10.73;8.00;;;-3.10;87.50;;;;;;5076608;28;20297;-86
2022/11/19 00:37:33;;;;;;;9.97;8.07;;;-3.10;87.60;;;;;;5074897;28;20192;-86
2022/11/19 00:40:00;;;;;;;8.80;7.60;;;-3.00;87.60;;;;;;5074551;28;20659;-85
2022/11/19 00:42:26;;;;;;;10.07;8.10;;;-3.00;87.50;;;;;;5075136;28;20188;-85
2022/11/19 00:44:52;;;;;;;14.70;8.50;;;-3.10;87.60;;;;;;5074681;28;20199;-86
2022/11/19 00:47:17;;;;;;;9.73;8.27;;;-3.10;87.60;;;;;;5075558;28;20632;-86
2022/11/19 00:49:43;;;;;;;11.03;7.93;;;-3.10;87.50;;;;;;5075543;28;20161;-85
2022/11/19 00:52:08;;;;;;;11.73;8.47;;;-3.20;87.50;;;;;;5075579;28;20172;-85
2022/11/19 00:54:34;;;;;;;10.13;8.10;;;-3.10;87.70;;;;;;5074129;28;20204;-85
2022/11/19 00:56:59;;;;;;;10.83;8.77;;;-3.10;87.80;;;;;;5074023;28;20271;-85
2022/11/19 00:59:25;;;;;;;10.90;8.80;;;-3.10;87.80;;;;;;5075582;28;20212;-86
2022/11/19 01:01:50;;;;;;;9.27;8.10;;;-3.10;87.80;;;;;;5074557;28;20322;-86
2022/11/19 01:04:16;;;;;;;13.17;7.77;;;-3.10;87.90;;;;;;5074901;28;20245;-86
2022/11/19 01:06:42;;;;;;;10.87;7.40;;;-3.10;88.00;;;;;;5074144;28;20185;-86
2022/11/19 01:09:07;;;;;;;10.17;7.87;;;-3.10;88.00;;;;;;5073913;28;20177;-86
2022/11/19 01:11:34;;;;;;;10.60;8.03;;;-3.10;88.00;;;;;;5073780;28;20178;-85
2022/11/19 01:14:01;;;;;;;10.93;7.63;;;-3.10;88.00;;;;;;5075331;28;20189;-85
2022/11/19 01:16:33;;;;;;;10.80;8.57;;;-3.10;88.00;;;;;;5073677;28;20269;-85
2022/11/19 01:18:59;;;;;;;11.27;8.57;;;-3.20;87.80;;;;;;5074608;28;20181;-85
2022/11/19 01:21:27;;;;;;;9.53;7.70;;;-3.20;87.80;;;;;;5074899;28;20182;-86
2022/11/19 01:23:54;;;;;;;10.03;7.90;;;-3.10;87.90;;;;;;5073595;28;20203;-85
2022/11/19 01:26:20;;;;;;;10.33;7.90;;;-3.10;87.90;;;;;;5076126;28;20236;-87
2022/11/19 01:28:46;;;;;;;10.87;8.23;;;-3.20;87.80;;;;;;5076454;28;20213;-87
2022/11/19 01:31:16;;;;;;;9.87;8.23;;;-3.20;87.60;;;;;;5078804;28;20174;-88
2022/11/19 01:33:43;;;;;;;11.40;8.30;;;-3.30;87.70;;;;;;5080201;28;20179;-88
2022/11/19 01:36:26;;;;;;;12.80;8.90;;;-3.20;87.80;;;;;;5079894;28;20199;-88
2022/11/19 01:38:53;;;;;;;10.13;8.47;;;-3.20;87.80;;;;;;5077518;28;20170;-88
2022/11/19 01:41:23;;;;;;;11.17;8.60;;;-3.20;87.70;;;;;;5076629;28;20180;-88
2022/11/19 01:43:57;;;;;;;10.07;8.03;;;-3.20;87.70;;;;;;5075970;28;20241;-87
2022/11/19 01:46:32;;;;;;;9.70;8.20;;;-3.30;87.60;;;;;;5075959;28;20264;-87
2022/11/19 01:49:11;;;;;;;14.87;7.97;;;-3.30;87.50;;;;;;5076945;28;20163;-88
2022/11/19 01:51:55;;;;;;;11.00;8.80;;;-3.30;87.50;;;;;;5076677;28;20546;-87
2022/11/19 01:54:29;;;;;;;9.83;7.77;;;-3.30;87.40;;;;;;5074769;28;20173;-87
2022/11/19 01:56:56;;;;;;;13.13;8.30;;;-3.40;87.30;;;;;;5075291;28;20189;-88
2022/11/19 01:59:22;;;;;;;11.10;8.80;;;-3.40;87.30;;;;;;5074504;28;20656;-87
2022/11/19 02:01:48;;;;;;;8.93;7.50;;;-3.40;87.30;;;;;;5073897;28;20678;-87
2022/11/19 02:04:16;;;;;;;10.57;8.40;;;-3.40;87.20;;;;;;5073446;28;20291;-87
2022/11/19 02:06:43;;;;;;;9.70;7.97;;;-3.40;87.10;;;;;;5073119;28;20644;-86
2022/11/19 02:09:08;;;;;;;9.17;7.70;;;-3.40;87.10;;;;;;5074158;28;20165;-87
2022/11/19 02:12:21;;;;;;;11.37;8.90;;;-3.40;87.00;;;;;;5073999;28;20248;-86
2022/11/19 02:15:27;;;;;;;9.83;8.33;;;-3.40;86.90;;;;;;5072304;28;20203;-87
2022/11/19 02:18:21;;;;;;;12.20;8.30;;;-3.50;86.80;;;;;;5072941;28;20191;-86
2022/11/19 02:21:08;;;;;;;18.17;9.13;;;-3.50;86.80;;;;;;5074376;28;20200;-86
2022/11/19 02:24:08;;;;;;;11.17;8.83;;;-3.60;86.70;;;;;;5073028;28;20197;-86
2022/11/19 02:26:40;;;;;;;14.07;8.93;;;-3.60;86.70;;;;;;5071936;28;20201;-86
2022/11/19 02:29:09;;;;;;;10.80;8.80;;;-3.60;86.60;;;;;;5073886;28;20543;-86
2022/11/19 02:31:43;;;;;;;10.83;8.53;;;-3.60;86.60;;;;;;5074014;28;20175;-86
2022/11/19 02:34:17;;;;;;;9.83;8.80;;;-3.60;86.50;;;;;;5072903;28;20168;-86
2022/11/19 02:37:01;;;;;;;10.30;9.10;;;-3.60;86.50;;;;;;5072654;28;20201;-86
2022/11/19 02:40:04;;;;;;;9.30;7.73;;;-3.60;86.40;;;;;;5073979;28;20305;-86
2022/11/19 02:42:40;;;;;;;12.80;8.73;;;-3.60;86.30;;;;;;5072619;28;20635;-86
2022/11/19 02:45:13;;;;;;;9.70;7.93;;;-3.60;86.20;;;;;;5074000;28;20243;-86
2022/11/19 02:48:10;;;;;;;9.43;7.87;;;-3.70;86.10;;;;;;5074392;28;20165;-87
2022/11/19 02:50:42;;;;;;;10.53;8.40;;;-3.70;86.10;;;;;;5072099;28;20184;-86
2022/11/19 02:53:09;;;;;;;10.13;8.67;;;-3.70;86.00;;;;;;5073458;28;20188;-86
2022/11/19 02:55:36;;;;;;;12.77;8.73;;;-3.70;86.00;;;;;;5072413;28;20246;-86
2022/11/19 03:06:54;;;;;;;16.97;10.97;;;-3.80;86.20;;;;;;5078974;28;20191;-86
2022/11/19 03:09:21;;;;;;;13.90;9.00;;;-3.80;86.20;;;;;;5073859;28;20577;-86
2022/11/19 03:11:54;;;;;;;11.93;9.33;;;-3.90;86.10;;;;;;5072876;28;20683;-86
2022/11/19 03:17:20;;;;;;;14.17;8.97;;;-3.80;86.20;;;;;;5074369;28;20210;-86
2022/11/19 03:20:02;;;;;;;12.57;8.93;;;-3.80;86.20;;;;;;5073671;28;20152;-86
2022/11/19 03:22:37;;;;;;;15.00;9.60;;;-3.80;86.10;;;;;;5072638;28;20176;-87
2022/11/19 03:25:11;;;;;;;11.30;8.80;;;-3.80;86.00;;;;;;5073798;28;20187;-86
2022/11/19 03:27:42;;;;;;;15.13;9.60;;;-3.80;85.90;;;;;;5076305;28;20158;-87
2022/11/19 03:30:09;;;;;;;12.10;8.67;;;-3.80;85.90;;;;;;5078083;28;20192;-86
2022/11/19 03:32:42;;;;;;;9.70;8.67;;;-3.80;85.90;;;;;;5077821;28;20179;-86
2022/11/19 03:35:12;;;;;;;13.40;9.50;;;-3.80;85.80;;;;;;5077550;28;20191;-86
2022/11/19 03:37:40;;;;;;;11.03;9.60;;;-3.90;85.80;;;;;;5076536;28;20180;-86
2022/11/19 03:40:09;;;;;;;11.63;8.43;;;-3.90;85.80;;;;;;5076268;28;20167;-86
2022/11/19 03:42:37;;;;;;;10.80;8.03;;;-3.90;85.60;;;;;;5076325;28;20259;-86
2022/11/19 03:45:16;;;;;;;12.27;8.50;;;-3.90;85.60;;;;;;5076398;28;20219;-87
2022/11/19 03:47:44;;;;;;;14.57;9.17;;;-4.00;85.50;;;;;;5077846;28;20165;-86
2022/11/19 03:50:16;;;;;;;11.67;8.40;;;-4.00;85.50;;;;;;5077594;28;20676;-86
2022/11/19 03:52:42;;;;;;;14.07;8.50;;;-4.00;85.50;;;;;;5077450;28;20156;-86
2022/11/19 03:55:08;;;;;;;10.87;8.63;;;-4.00;85.50;;;;;;5077599;28;20225;-86
2022/11/19 03:57:34;;;;;;;10.20;8.93;;;-4.00;85.50;;;;;;5077300;28;20602;-86
2022/11/19 04:00:00;;;;;;;11.27;9.03;;;-4.00;85.50;;;;;;5076145;28;20196;-87
2022/11/19 04:02:25;;;;;;;10.73;8.30;;;-3.90;85.60;;;;;;5075968;28;20168;-86
2022/11/19 04:04:51;;;;;;;9.93;8.80;;;-4.00;85.40;;;;;;5075918;28;20673;-86
2022/11/19 04:07:19;;;;;;;10.97;7.77;;;-4.10;85.70;;;;;;5075908;28;20167;-86
2022/11/19 04:09:45;;;;;;;14.07;8.53;;;-4.10;86.00;;;;;;5077205;28;20186;-86
2022/11/19 04:12:19;;;;;;;14.00;7.87;;;-4.10;86.20;;;;;;5077279;28;20646;-86
2022/11/19 04:14:45;;;;;;;9.47;8.03;;;-4.10;86.50;;;;;;5076034;28;20197;-86
2022/11/19 04:17:11;;;;;;;9.60;8.53;;;-4.10;86.80;;;;;;5075912;28;20175;-86
2022/11/19 04:19:36;;;;;;;13.47;8.27;;;-4.30;86.80;;;;;;5075486;28;20542;-86
2022/11/19 04:22:02;;;;;;;11.13;7.63;;;-4.10;87.10;;;;;;5076543;28;20180;-86
2022/11/19 04:24:28;;;;;;;20.57;9.53;;;-4.10;87.30;;;;;;5074774;28;20222;-86
2022/11/19 04:26:53;;;;;;;14.97;9.23;;;-4.10;87.20;;;;;;5074706;28;20186;-86
2022/11/19 04:29:19;;;;;;;12.13;7.93;;;-4.20;87.30;;;;;;5075973;28;20642;-86
2022/11/19 04:31:45;;;;;;;13.63;9.27;;;-4.10;87.50;;;;;;5076249;28;20541;-86
2022/11/19 04:34:10;;;;;;;12.07;9.17;;;-4.10;87.60;;;;;;5074961;28;20562;-86
2022/11/19 04:36:36;;;;;;;12.20;8.53;;;-4.00;87.70;;;;;;5074531;28;20206;-86
2022/11/19 04:39:02;;;;;;;12.50;8.37;;;-4.00;87.70;;;;;;5075399;28;20194;-86
2022/11/19 04:41:27;;;;;;;11.10;9.07;;;-4.10;87.70;;;;;;5075820;28;20276;-86
2022/11/19 04:43:53;;;;;;;9.80;8.17;;;-4.00;87.70;;;;;;5074370;28;20212;-86
2022/11/19 04:46:18;;;;;;;13.03;9.33;;;-4.00;87.80;;;;;;5075604;28;20226;-86
2022/11/19 04:48:44;;;;;;;9.90;7.10;;;-4.10;87.70;;;;;;5074392;28;20213;-86
2022/11/19 04:51:09;;;;;;;9.67;7.73;;;-4.10;87.60;;;;;;5075803;28;20280;-86
2022/11/19 04:53:35;;;;;;;15.77;9.27;;;-4.10;87.70;;;;;;5074499;28;20175;-86
2022/11/19 04:56:00;;;;;;;11.83;8.63;;;-4.00;87.80;;;;;;5074088;28;20203;-86
2022/11/19 04:58:26;;;;;;;11.37;8.13;;;-3.90;87.80;;;;;;5074200;28;20229;-86
2022/11/19 05:00:51;;;;;;;10.73;9.07;;;-3.80;88.10;;;;;;5074198;28;20650;-86
2022/11/19 05:03:17;;;;;;;14.97;8.93;;;-3.80;88.20;;;;;;5074278;28;20206;-86
2022/11/19 05:05:43;;;;;;;11.27;8.50;;;-3.60;88.60;;;;;;5074106;28;20195;-86
2022/11/19 05:08:08;;;;;;;10.97;8.23;;;-3.50;88.80;;;;;;5073913;28;20340;-86
2022/11/19 05:10:34;;;;;;;12.07;9.30;;;-3.50;88.90;;;;;;5074035;28;20180;-86
2022/11/19 05:12:59;;;;;;;11.20;8.87;;;-3.40;89.20;;;;;;5074066;28;20270;-86
2022/11/19 05:15:25;;;;;;;13.10;9.47;;;-3.30;89.30;;;;;;5075802;28;20199;-86
2022/11/19 05:17:50;;;;;;;14.37;8.93;;;-3.20;89.50;;;;;;5075151;28;20551;-86
2022/11/19 05:20:16;;;;;;;11.60;8.93;;;-3.10;89.60;;;;;;5075363;28;20176;-86
2022/11/19 05:22:41;;;;;;;11.70;8.97;;;-3.10;89.60;;;;;;5073888;28;20181;-87
2022/11/19 05:25:07;;;;;;;12.10;9.00;;;-3.10;89.60;;;;;;5073789;28;20195;-86
2022/11/19 05:27:33;;;;;;;13.00;9.30;;;-3.20;89.70;;;;;;5074876;28;20258;-86
2022/11/19 05:29:58;;;;;;;13.90;8.57;;;-3.20;89.80;;;;;;5074936;28;20191;-86
2022/11/19 05:32:24;;;;;;;10.77;8.43;;;-3.20;89.80;;;;;;5073620;28;20182;-86
2022/11/19 05:34:49;;;;;;;14.37;9.07;;;-3.10;89.80;;;;;;5073389;28;20204;-86
2022/11/19 05:37:15;;;;;;;13.83;9.17;;;-3.10;89.90;;;;;;5073473;28;20182;-86
2022/11/19 05:39:41;;;;;;;10.63;7.87;;;-3.10;89.90;;;;;;5073441;28;20181;-86
2022/11/19 05:42:06;;;;;;;11.23;8.70;;;-3.10;89.90;;;;;;5073279;28;20177;-86
2022/11/19 05:44:32;;;;;;;13.77;8.73;;;-3.20;89.80;;;;;;5074507;28;20196;-86
2022/11/19 05:46:58;;;;;;;11.77;8.80;;;-3.20;89.90;;;;;;5073280;28;20544;-86
2022/11/19 05:49:24;;;;;;;16.70;8.47;;;-3.10;90.00;;;;;;5072254;28;20670;-86
2022/11/19 05:51:49;;;;;;;12.60;8.77;;;-3.10;90.00;;;;;;5073289;28;20195;-86
2022/11/19 05:54:15;;;;;;;10.53;8.87;;;-3.10;90.10;;;;;;5073112;28;20199;-86
2022/11/19 05:56:40;;;;;;;11.17;8.60;;;-3.10;90.00;;;;;;5074217;28;20537;-86
2022/11/19 05:59:06;;;;;;;13.70;8.57;;;-3.10;90.00;;;;;;5074323;28;20238;-86
2022/11/19 06:01:31;;;;;;;11.97;9.23;;;-3.10;89.90;;;;;;5073005;28;20181;-86
2022/11/19 06:03:57;;;;;;;13.63;8.80;;;-3.10;89.90;;;;;;5072834;28;20240;-86
2022/11/19 06:06:24;;;;;;;14.87;9.03;;;-3.10;89.90;;;;;;5074197;28;20191;-86
2022/11/19 06:08:50;;;;;;;11.13;9.00;;;-3.10;89.80;;;;;;5072939;28;20555;-86
2022/11/19 06:14:00;;;;;;;11.23;9.00;;;-3.10;89.80;;;;;;5074281;28;20599;-86
2022/11/19 06:16:25;;;;;;;9.87;8.20;;;-3.20;89.70;;;;;;5073934;28;20196;-86
2022/11/19 06:18:51;;;;;;;10.73;9.23;;;-3.30;89.70;;;;;;5074319;28;20222;-86
2022/11/19 06:21:16;;;;;;;12.70;9.20;;;-3.30;89.70;;;;;;5074003;28;20552;-86
2022/11/19 06:23:42;;;;;;;15.27;9.23;;;-3.30;89.70;;;;;;5072705;28;20231;-87
2022/11/19 06:26:08;;;;;;;11.57;8.87;;;-3.30;89.70;;;;;;5072692;28;20199;-86
2022/11/19 06:28:34;;;;;;;13.13;9.77;;;-3.30;89.70;;;;;;5072703;28;20175;-86
2022/11/19 06:30:59;;;;;;;12.80;9.40;;;-3.30;89.70;;;;;;5073862;28;20875;-86
2022/11/19 06:33:25;;;;;;;15.43;8.80;;;-3.30;89.80;;;;;;5072678;28;20687;-86
2022/11/19 06:35:50;;;;;;;12.50;9.20;;;-3.20;89.90;;;;;;5073693;28;20211;-86
2022/11/19 06:38:16;;;;;;;11.97;9.07;;;-3.20;89.90;;;;;;5074033;28;20193;-86
2022/11/19 06:40:44;;;;;;;10.97;9.57;;;-3.20;90.00;;;;;;5073795;28;20222;-86
2022/11/19 06:43:10;;;;;;;9.77;8.17;;;-3.10;90.00;;;;;;5073686;28;20298;-86
2022/11/19 06:45:36;;;;;;;13.33;8.90;;;-3.00;90.20;;;;;;5073543;28;20232;-86
2022/11/19 06:48:02;;;;;;;12.03;8.97;;;-2.90;90.30;;;;;;5072446;28;20217;-86
2022/11/19 06:50:27;;;;;;;10.17;8.87;;;-2.80;90.30;;;;;;5072486;28;20554;-86
2022/11/19 06:52:53;;;;;;;14.50;9.40;;;-2.80;90.40;;;;;;5072380;28;20175;-86
2022/11/19 06:55:18;;;;;;;11.97;9.57;;;-2.80;90.40;;;;;;5072696;28;20199;-86
2022/11/19 06:57:44;;;;;;;14.00;10.17;;;-2.70;90.50;;;;;;5074311;28;20195;-85
2022/11/19 07:00:11;;;;;;;13.43;9.93;;;-2.70;90.50;;;;;;5075250;28;20192;-86
2022/11/19 07:02:36;;;;;;;13.27;10.07;;;-2.60;90.50;;;;;;5073691;28;20226;-86
2022/11/19 07:05:02;;;;;;;12.53;9.67;;;-2.50;90.70;;;;;;5073724;28;20265;-86
2022/11/19 07:07:28;;;;;;;12.07;9.37;;;-2.40;90.70;;;;;;5072157;28;20173;-86
2022/11/19 07:09:54;;;;;;;10.90;9.37;;;-2.50;90.60;;;;;;5073320;28;20174;-87
2022/11/19 07:12:19;;;;;;;12.90;9.53;;;-2.40;90.70;;;;;;5073349;28;20786;-86
2022/11/19 07:14:45;;;;;;;13.47;9.27;;;-2.40;90.70;;;;;;5072188;28;20222;-87
2022/11/19 07:17:10;;;;;;;12.70;9.63;;;-2.30;90.80;;;;;;5072259;28;20181;-86
2022/11/19 07:19:36;;;;;;;10.90;8.83;;;-2.30;90.80;;;;;;5073725;28;20182;-86
2022/11/19 07:22:01;;;;;;;12.00;8.80;;;-2.20;90.80;;;;;;5073418;28;20183;-86
2022/11/19 07:24:27;;;;;;;12.50;8.87;;;-2.20;90.90;;;;;;5073266;28;20272;-86
2022/11/19 07:26:54;;;;;;;10.30;9.03;;;-2.20;90.80;;;;;;5072105;28;20186;-86
2022/11/19 07:29:19;;;;;;;9.20;7.90;;;-2.20;90.80;;;;;;5072458;28;20608;-86
2022/11/19 07:31:49;;;;;;;11.80;8.73;;;-2.20;90.80;;;;;;5072020;28;20270;-86
2022/11/19 07:34:15;;;;;;;14.03;10.03;;;-2.10;90.90;;;;;;5073243;28;20174;-86
2022/11/19 07:36:41;;;;;;;13.57;9.70;;;-2.00;90.90;;;;;;5073237;28;20179;-86
2022/11/19 07:39:06;;;;;;;13.20;9.50;;;-2.10;90.90;;;;;;5072214;28;20186;-86
2022/11/19 07:44:16;;;;;;;13.80;10.20;;;-2.00;90.90;;;;;;5073325;28;20283;-86
2022/11/19 07:46:41;;;;;;;13.03;9.53;;;-1.90;91.00;;;;;;5071918;28;20182;-86
2022/11/19 07:49:07;;;;;;;11.93;9.87;;;-1.90;91.00;;;;;;5071831;28;20179;-86
2022/11/19 07:51:32;;;;;;;13.67;10.10;;;-2.00;90.90;;;;;;5071892;28;20185;-86
2022/11/19 07:53:58;;;;;;;12.30;10.43;;;-1.90;91.00;;;;;;5071966;28;20262;-86
2022/11/19 07:56:24;;;;;;;15.50;9.97;;;-1.90;91.00;;;;;;5072955;28;20195;-86
2022/11/19 07:58:49;;;;;;;10.40;9.17;;;-1.90;91.00;;;;;;5071766;28;20202;-86
2022/11/19 08:01:21;;;;;;;12.60;8.80;;;-2.00;91.00;;;;;;5072016;28;20660;-86
2022/11/19 08:03:47;;;;;;;13.67;9.60;;;-2.00;91.00;;;;;;5071893;28;20207;-86
2022/11/19 08:06:14;;;;;;;15.60;10.53;;;-2.00;91.10;;;;;;5071453;28;20195;-86
2022/11/19 08:08:41;;;;;;;15.43;10.07;;;-2.00;91.20;;;;;;5071780;28;20672;-86
2022/11/19 08:11:08;;;;;;;11.93;10.17;;;-2.00;91.20;;;;;;5072868;28;20171;-86
2022/11/19 08:13:34;;;;;;;11.13;9.17;;;-1.90;91.20;;;;;;5073858;28;20182;-86
2022/11/19 08:16:04;;;;;;;11.70;10.13;;;-1.90;91.30;;;;;;5076585;28;20258;-86
2022/11/19 08:18:30;;;;;;;11.50;9.30;;;-1.80;91.30;;;;;;5077208;28;20176;-86
2022/11/19 08:21:06;;;;;;;13.63;9.13;;;-1.70;91.40;;;;;;5075190;28;20652;-86
2022/11/19 08:23:32;;;;;;;14.83;10.13;;;-1.60;91.50;;;;;;5076298;28;20324;-86
2022/11/19 08:25:58;;;;;;;14.07;9.93;;;-1.60;91.50;;;;;;5076015;28;20538;-86
2022/11/19 08:28:24;;;;;;;11.50;9.07;;;-1.60;91.50;;;;;;5074900;28;20183;-86
2022/11/19 08:30:49;;;;;;;14.97;10.37;;;-1.40;91.60;;;;;;5074896;28;20561;-87
2022/11/19 08:33:15;;;;;;;13.40;10.57;;;-1.40;91.50;;;;;;5076241;28;20254;-86
2022/11/19 08:35:41;;;;;;;18.93;10.07;;;-1.30;91.60;;;;;;5075118;28;20215;-86
2022/11/19 08:38:07;;;;;;;13.27;10.03;;;-1.30;91.60;;;;;;5074767;28;20176;-86
2022/11/19 08:40:33;;;;;;;16.53;9.60;;;-1.20;91.60;;;;;;5075882;28;20598;-86
2022/11/19 08:42:59;;;;;;;14.40;9.77;;;-1.10;91.60;;;;;;5074664;28;20619;-87
2022/11/19 08:45:33;;;;;;;11.87;8.93;;;-1.10;91.60;;;;;;5075975;28;20224;-86
2022/11/19 08:48:01;;;;;;;14.10;9.93;;;-1.00;91.60;;;;;;5074614;28;20717;-86
2022/11/19 08:50:28;;;;;;;16.00;9.80;;;-0.90;91.70;;;;;;5074554;28;20175;-86
2022/11/19 08:52:59;;;;;;;15.30;11.03;;;-0.80;91.80;;;;;;5074358;28;20176;-86
2022/11/19 08:55:27;;;;;;;15.23;11.73;;;-0.60;91.80;;;;;;5074321;28;20280;-86
2022/11/19 08:58:02;;;;;;;22.07;10.70;;;-0.60;91.80;;;;;;5075529;28;20187;-86
2022/11/19 09:00:29;;;;;;;17.60;10.87;;;-0.60;91.90;;;;;;5075684;28;20164;-87
2022/11/19 09:02:55;;;;;;;15.07;12.03;;;-0.40;92.00;;;;;;5074758;28;20198;-87
2022/11/19 09:05:20;;;;;;;15.20;11.70;;;-0.30;92.00;;;;;;5076018;28;20662;-86
2022/11/19 09:07:46;;;;;;;13.60;11.10;;;-0.30;92.00;;;;;;5074457;28;20210;-85
2022/11/19 09:10:11;;;;;;;15.37;11.63;;;-0.20;92.10;;;;;;5074049;28;20557;-85
2022/11/19 09:12:37;;;;;;;12.57;10.47;;;-0.10;92.10;;;;;;5075345;28;20167;-85
2022/11/19 09:15:03;;;;;;;12.83;10.27;;;-0.10;92.20;;;;;;5073854;28;20294;-86
2022/11/19 09:17:29;;;;;;;18.47;10.43;;;-0.10;92.20;;;;;;5073726;28;20189;-86
2022/11/19 09:19:55;;;;;;;12.07;10.40;;;0.00;92.30;;;;;;5074046;28;20184;-86
2022/11/19 09:22:20;;;;;;;13.80;10.40;;;0.20;92.40;;;;;;5075145;28;20178;-85
2022/11/19 09:24:46;;;;;;;12.50;10.17;;;0.30;92.50;;;;;;5074979;28;20207;-87
2022/11/19 09:27:12;;;;;;;12.80;10.10;;;0.40;92.50;;;;;;5074266;28;20176;-87
2022/11/19 09:29:37;;;;;;;17.17;10.23;;;0.50;92.50;;;;;;5076020;28;20571;-86
2022/11/19 09:32:03;;;;;;;14.43;10.90;;;0.50;92.50;;;;;;5075648;28;20178;-87
2022/11/19 09:34:29;;;;;;;11.13;9.80;;;0.70;92.70;;;;;;5074781;28;20182;-87
2022/11/19 09:36:54;;;;;;;14.83;9.70;;;0.80;92.70;;;;;;5075427;28;20181;-87
2022/11/19 09:39:20;;;;;;;14.10;10.03;;;0.90;92.70;;;;;;5074160;28;20176;-87
2022/11/19 09:42:18;;;;;;;13.50;10.00;;;0.90;92.70;;;;;;5073707;28;20736;-87
2022/11/19 09:45:01;;;;;;;13.33;9.30;;;0.90;92.70;;;;;;5073713;28;20287;-86
2022/11/19 09:47:51;;;;;;;11.43;9.00;;;0.90;92.70;;;;;;5074595;28;20210;-86
2022/11/19 09:50:31;;;;;;;15.23;10.50;;;0.90;92.70;;;;;;5073459;28;20203;-87
2022/11/19 09:53:10;;;;;;;14.13;9.70;;;1.00;92.80;;;;;;5074515;28;20168;-87
2022/11/19 09:55:38;;;;;;;15.27;10.03;;;1.00;92.70;;;;;;5073294;28;20218;-87
2022/11/19 09:58:14;;;;;;;13.27;10.27;;;1.10;92.80;;;;;;5074346;28;20185;-87
2022/11/19 10:00:43;;;;;;;13.27;9.17;;;1.20;92.80;;;;;;5073388;28;20174;-87
2022/11/19 10:03:14;;;;;;;10.23;8.70;;;1.20;92.80;;;;;;5073175;28;20312;-87
2022/11/19 10:05:40;;;;;;;10.33;8.97;;;1.30;92.90;;;;;;5073260;28;20207;-87
2022/11/19 10:08:33;;;;;;;12.80;9.97;;;1.50;92.90;;;;;;5074865;28;20718;-87
2022/11/19 10:11:38;;;;;;;13.30;10.43;;;1.60;92.90;;;;;;5074325;28;20224;-87
2022/11/19 10:14:40;;;;;;;14.57;10.17;;;1.70;92.90;;;;;;5073616;28;20177;-88
2022/11/19 10:17:35;;;;;;;12.70;9.77;;;1.70;92.90;;;;;;5073261;28;20175;-88
2022/11/19 10:20:16;;;;;;;14.80;9.37;;;1.70;92.80;;;;;;5073269;28;20170;-87
2022/11/19 10:23:00;;;;;;;10.80;9.37;;;1.80;92.90;;;;;;5073780;28;20181;-88
2022/11/19 10:25:34;;;;;;;10.93;8.97;;;1.80;92.90;;;;;;5073522;28;20199;-88
2022/11/19 10:28:21;;;;;;;11.63;8.90;;;1.80;92.90;;;;;;5075075;28;20587;-88
2022/11/19 10:30:53;;;;;;;12.93;8.93;;;1.80;92.80;;;;;;5074510;28;20159;-88
2022/11/19 10:33:31;;;;;;;11.40;8.80;;;1.90;92.90;;;;;;5073938;28;20171;-88
2022/11/19 10:36:03;;;;;;;9.30;8.40;;;1.90;92.80;;;;;;5072690;28;20194;-88
2022/11/19 10:38:37;;;;;;;11.00;9.00;;;2.00;92.80;;;;;;5072898;28;20227;-87
2022/11/19 10:41:17;;;;;;;10.00;8.80;;;2.00;92.80;;;;;;5073175;28;20160;-88
2022/11/19 10:43:47;;;;;;;10.27;9.17;;;2.10;92.70;;;;;;5072462;28;20202;-88
2022/11/19 10:46:18;;;;;;;10.53;9.10;;;2.10;92.70;;;;;;5073941;28;20184;-88
2022/11/19 10:48:50;;;;;;;10.90;8.97;;;2.10;92.70;;;;;;5073652;28;20617;-88
2022/11/19 10:51:26;;;;;;;12.20;8.53;;;2.20;92.70;;;;;;5073695;28;20156;-88
2022/11/19 10:53:53;;;;;;;8.67;7.77;;;2.30;92.70;;;;;;5072415;28;20179;-88
2022/11/19 10:56:23;;;;;;;9.67;8.43;;;2.20;92.60;;;;;;5072244;28;20198;-87
2022/11/19 10:59:00;;;;;;;12.67;8.90;;;2.30;92.60;;;;;;5072714;28;20195;-87
2022/11/19 11:01:35;;;;;;;12.40;7.83;;;2.30;92.60;;;;;;5073267;28;20184;-87
2022/11/19 11:04:25;;;;;;;11.13;8.53;;;2.40;92.60;;;;;;5071959;28;20297;-87
2022/11/19 11:06:59;;;;;;;10.13;7.93;;;2.50;92.60;;;;;;5073559;28;20172;-88
2022/11/19 11:09:38;;;;;;;9.50;8.10;;;2.50;92.50;;;;;;5071881;28;20164;-87
2022/11/19 11:15:15;;;;;;;8.53;7.67;;;2.50;92.40;;;;;;5073607;28;20254;-87
2022/11/19 11:17:41;;;;;;;12.00;8.27;;;2.70;92.40;;;;;;5073296;28;20175;-88
2022/11/19 11:20:25;;;;;;;11.83;8.70;;;3.10;92.60;;;;;;5071907;28;20174;-87
2022/11/19 11:23:03;;;;;;;12.03;8.87;;;3.40;92.50;;;;;;5071925;28;20258;-87
2022/11/19 11:25:29;;;;;;;17.30;9.13;;;3.70;92.30;;;;;;5073527;28;20180;-87
2022/11/19 11:28:16;;;;;;;11.93;8.10;;;3.70;92.00;;;;;;5072088;28;20173;-88
2022/11/19 11:31:04;;;;;;;11.87;7.43;;;3.80;91.70;;;;;;5073158;28;20228;-87
2022/11/19 11:33:36;;;;;;;11.00;7.53;;;4.00;91.50;;;;;;5073599;28;20168;-88
2022/11/19 11:36:10;;;;;;;10.83;7.33;;;4.30;91.10;;;;;;5071669;28;20195;-87
2022/11/19 11:38:42;;;;;;;9.93;6.10;;;4.30;90.60;;;;;;5071982;28;20236;-87
2022/11/19 11:41:11;;;;;;;6.50;5.80;;;4.30;90.20;;;;;;5072982;28;20238;-87
2022/11/19 11:43:40;;;;;;;14.90;5.73;;;4.30;89.60;;;;;;5071680;28;20684;-87
2022/11/19 11:46:09;;;;;;;6.63;5.47;;;4.30;89.20;;;;;;5072656;28;20273;-87
2022/11/19 11:48:44;;;;;;;7.33;6.40;;;4.30;88.80;;;;;;5073714;28;20641;-87
2022/11/19 11:51:34;;;;;;;7.27;5.87;;;4.50;88.60;;;;;;5075520;28;20613;-87
2022/11/19 11:54:19;;;;;;;5.90;5.40;;;4.60;88.20;;;;;;5076374;28;20186;-88
2022/11/19 11:56:45;;;;;;;7.80;5.70;;;4.80;87.90;;;;;;5075330;28;20251;-88
2022/11/19 11:59:29;;;;;;;5.80;5.30;;;4.80;87.50;;;;;;5075942;28;20178;-87
2022/11/19 12:02:07;;;;;;;5.57;4.93;;;4.80;86.70;;;;;;5075171;28;20177;-87
2022/11/19 12:04:34;;;;;;;6.40;5.40;;;4.60;85.50;;;;;;5089600;28;20182;-93
2022/11/19 12:07:27;;;;;;;6.13;5.50;;;4.40;84.80;;;;;;5097795;28;20193;-93
2022/11/19 12:10:04;;;;;;;6.43;4.80;;;4.60;85.60;;;;;;5096232;28;20185;-93
2022/11/19 12:12:58;;;;;;;6.03;5.30;;;4.80;85.80;;;;;;5094666;28;20186;-92
2022/11/19 12:15:45;;;;;;;7.47;6.43;;;4.80;85.40;;;;;;5089622;28;20203;-91
2022/11/19 12:18:25;;;;;;;7.93;5.83;;;4.70;85.00;;;;;;5088270;28;20628;-92
2022/11/19 12:21:05;;;;;;;6.83;5.67;;;4.80;85.20;;;;;;5089524;28;20181;-92
2022/11/19 12:23:37;;;;;;;10.63;5.87;;;4.90;84.90;;;;;;5088511;28;20198;-92
2022/11/19 12:26:35;;;;;;;9.37;5.50;;;5.10;85.00;;;;;;5086903;28;20691;-91
2022/11/19 12:29:33;;;;;;;8.10;5.83;;;5.10;84.30;;;;;;5082796;28;20270;-91
2022/11/19 12:32:36;;;;;;;5.73;5.13;;;5.10;83.90;;;;;;5088954;28;20236;-91
2022/11/19 12:35:15;;;;;;;5.87;5.20;;;5.00;83.50;;;;;;5076213;22;20227;-91
2022/11/19 12:38:02;;;;;;;5.80;5.20;;;4.90;83.30;;;;;;5055952;28;20178;-86
2022/11/19 12:40:47;;;;;;;6.23;5.13;;;5.00;83.90;;;;;;5056013;28;20193;-87
2022/11/19 12:43:41;;;;;;;5.43;4.93;;;5.20;83.50;;;;;;5054727;28;20199;-87
2022/11/19 12:46:34;;;;;;;6.63;4.90;;;5.10;82.90;;;;;;5054415;28;20579;-87
2022/11/19 12:49:38;;;;;;;5.73;4.63;;;5.20;83.10;;;;;;5054436;28;20166;-88
2022/11/19 12:52:36;;;;;;;4.57;4.13;;;5.30;83.20;;;;;;5024335;28;20252;-87
2022/11/19 12:55:27;;;;;;;8.63;4.00;;;5.30;83.00;;;;;;5054647;28;20294;-87
2022/11/19 12:58:24;;;;;;;4.00;3.60;;;5.20;82.80;;;;;;5054461;28;20167;-87
2022/11/19 13:00:56;;;;;;;4.47;4.03;;;5.10;81.90;;;;;;5054590;28;20542;-88
2022/11/19 13:03:48;;;;;;;7.50;4.00;;;5.00;81.90;;;;;;5055719;28;20203;-87
2022/11/19 13:06:27;;;;;;;5.00;3.97;;;5.10;82.20;;;;;;5054313;28;20203;-87
2022/11/19 13:09:06;;;;;;;5.67;4.07;;;5.10;82.60;;;;;;5054162;28;20168;-86
2022/11/19 13:11:43;;;;;;;5.17;4.40;;;5.20;82.30;;;;;;5054019;28;20164;-87
2022/11/19 13:14:22;;;;;;;4.10;3.73;;;5.20;82.30;;;;;;5053996;28;20160;-87
2022/11/19 13:16:50;;;;;;;4.67;4.20;;;5.20;82.20;;;;;;5053868;28;20253;-88
2022/11/19 13:19:26;;;;;;;5.57;3.90;;;5.10;82.20;;;;;;5055366;28;20207;-88
2022/11/19 13:21:57;;;;;;;4.20;3.80;;;5.20;82.30;;;;;;5054863;28;20193;-89